Аэропорт: Национальный аэропорт Минск. Минск

ICAO: UMMS

METAR:
2022-01-28 09:00:00
UMMS 280900Z 21006MPS 9000 -RA BKN008 OVC012 01/00 Q0995 NOSIG
METAR:
2022-01-28 05:09:00
TAF UMMS 280509Z 2806/2906 22005G10MPS 2100 -SN OVC003 TX01/2806Z TNM02/2906Z TEMPO 2806/2815 24008G13MPS 0500 -FZDZ +SHRASN OVC002 BKN012CB TEMPO 2815/2906 32009G14MPS 1200 -FZDZ SHRASN BKN003 BKN010CB